Terminal Aerodrome Forecast
Issued by NWS

Home | Current Version | Previous Version | Text Only | Print | Product List | Glossary On
Versions: 1 2 3 4 5 6 7 8 9 10 11 12 13 14 15 16 17 18 19 20 21 22 23 24 25 26 27
431
FTUS45 KLKN 050703 AAA
TAFTPH
TAF AMD
KTPH 050703Z 0507/0606 01006KT P6SM BKN200
     FM051000 VRB06KT P6SM BKN200
     FM051800 18020G30KT P6SM SCT100 BKN150
     FM052100 18026G36KT P6SM SCT080 BKN130
     FM060300 17012KT P6SM SCT070 BKN120=

USA.gov is the U.S. government's official web portal to all federal, state and local government web resources and services.